createdAt,value
2023-02-11T00:00:02.123Z,95.00
2023-02-11T00:05:07.950Z,91.70
2023-02-11T00:10:11.010Z,91.68
2023-02-11T00:15:15.145Z,89.90
2023-02-11T00:20:17.980Z,89.03
2023-02-11T00:25:21.017Z,90.63
2023-02-11T00:30:25.505Z,84.82
2023-02-11T00:35:30.023Z,80.10
2023-02-11T00:40:32.769Z,101.20
2023-02-11T00:45:36.989Z,92.00
2023-02-11T00:50:39.777Z,80.47
2023-02-11T00:55:42.895Z,82.72
2023-02-11T01:00:48.100Z,87.78
2023-02-11T01:05:51.127Z,93.72
2023-02-11T01:10:58.703Z,82.53
2023-02-11T01:16:02.969Z,82.43
2023-02-11T01:21:06.116Z,77.50
2023-02-11T01:26:08.852Z,96.75
2023-02-11T01:31:13.072Z,80.53
2023-02-11T01:36:15.949Z,73.40
2023-02-11T01:41:18.684Z,95.72
2023-02-11T01:46:31.025Z,84.85
2023-02-11T01:51:39.366Z,82.45
2023-02-11T01:57:05.572Z,80.30
2023-02-11T02:02:13.271Z,85.90
2023-02-11T02:07:26.089Z,88.93
2023-02-11T02:12:28.880Z,89.93
2023-02-11T02:17:42.192Z,85.68
2023-02-11T02:23:17.923Z,88.90
2023-02-11T02:28:44.454Z,87.68
2023-02-11T02:33:57.318Z,79.28
2023-02-11T02:39:05.507Z,93.60
2023-02-11T02:44:09.360Z,94.53
2023-02-11T02:49:15.479Z,90.18
2023-02-11T02:55:06.870Z,104.05
2023-02-11T03:00:19.205Z,99.05
2023-02-11T03:05:32.824Z,96.22
2023-02-11T03:10:39.328Z,93.03
2023-02-11T03:15:44.972Z,94.78
2023-02-11T03:20:51.831Z,109.45
2023-02-11T03:26:00.441Z,92.57
2023-02-11T03:31:12.242Z,103.63
2023-02-11T03:36:21.821Z,106.53
2023-02-11T03:41:26.063Z,102.65
2023-02-11T03:46:33.122Z,123.68
2023-02-11T03:56:49.973Z,93.35
2023-02-11T04:01:53.459Z,92.45
2023-02-11T04:06:58.322Z,92.10
2023-02-11T04:12:01.402Z,93.05
2023-02-11T04:17:04.304Z,103.97
2023-02-11T04:22:09.329Z,88.53
2023-02-11T04:27:12.156Z,85.63
2023-02-11T04:32:15.952Z,87.57
2023-02-11T04:37:20.092Z,92.50
2023-02-11T04:42:22.826Z,88.13
2023-02-11T04:47:25.638Z,92.53
2023-02-11T04:52:29.731Z,82.68
2023-02-11T04:57:32.499Z,85.40
2023-02-11T05:02:35.211Z,99.35
2023-02-11T05:07:39.388Z,107.07
2023-02-11T05:12:42.140Z,97.88
2023-02-11T05:17:44.855Z,100.22
2023-02-11T05:22:49.309Z,90.10
2023-02-11T05:27:52.245Z,90.13
2023-02-11T05:32:55.084Z,84.57
2023-02-11T05:37:59.151Z,83.00
2023-02-11T05:43:01.991Z,88.03
2023-02-11T05:48:04.909Z,95.22
2023-02-11T05:53:09.221Z,82.50
2023-02-11T05:58:12.186Z,78.20
2023-02-11T06:03:15.027Z,84.85
2023-02-11T06:08:19.341Z,89.85
2023-02-11T06:13:22.057Z,104.05
2023-02-11T06:18:24.807Z,108.28
2023-02-11T06:23:30.460Z,84.88
2023-02-11T06:28:33.809Z,86.28
2023-02-11T06:33:37.033Z,99.57
2023-02-11T06:38:41.154Z,117.10
2023-02-11T06:43:44.386Z,108.43
2023-02-11T06:48:47.252Z,104.40
2023-02-11T06:53:51.449Z,129.65
2023-02-11T06:58:55.800Z,117.97
2023-02-11T07:03:58.530Z,117.40
2023-02-11T07:09:02.731Z,121.45
2023-02-11T07:14:08.330Z,136.73
2023-02-11T07:19:11.217Z,125.88
2023-02-11T07:24:15.724Z,126.88
2023-02-11T07:29:18.426Z,98.03
2023-02-11T07:34:21.236Z,120.95
2023-02-11T07:39:27.399Z,111.57
2023-02-11T07:44:30.334Z,102.83
2023-02-11T07:49:33.295Z,97.38
2023-02-11T07:54:37.437Z,96.15
2023-02-11T07:59:40.213Z,94.22
2023-02-11T08:04:42.998Z,95.53
2023-02-11T08:09:47.476Z,92.70
2023-02-11T08:14:50.198Z,100.47
2023-02-11T08:19:52.985Z,92.88
2023-02-11T08:24:58.333Z,98.95
2023-02-11T08:30:02.003Z,124.95
2023-02-11T08:35:05.044Z,108.32
2023-02-11T08:40:10.380Z,102.55
2023-02-11T08:45:13.353Z,101.25
2023-02-11T08:50:16.230Z,84.80
2023-02-11T08:55:20.580Z,92.40
2023-02-11T09:00:24.045Z,92.03
2023-02-11T09:05:27.596Z,83.03
2023-02-11T09:10:31.677Z,92.95
2023-02-11T09:15:34.752Z,83.85
2023-02-11T09:20:37.571Z,102.70
2023-02-11T09:25:42.189Z,89.43
2023-02-11T09:30:45.065Z,99.85
2023-02-11T09:35:47.911Z,83.90
2023-02-11T09:40:52.312Z,98.80
2023-02-11T09:45:56.802Z,79.82
2023-02-11T09:51:04.375Z,76.70
2023-02-11T09:56:14.401Z,95.43
2023-02-11T10:01:28.775Z,85.13
2023-02-11T10:06:44.147Z,99.63
2023-02-11T10:11:58.213Z,84.15
2023-02-11T10:17:13.014Z,78.65
2023-02-11T10:22:20.930Z,84.55
2023-02-11T10:27:31.648Z,77.03
2023-02-11T10:32:40.454Z,72.05
2023-02-11T10:37:44.594Z,82.57
2023-02-11T10:42:50.935Z,71.43
2023-02-11T10:47:55.277Z,75.80
2023-02-11T10:53:14.246Z,72.00
2023-02-11T10:58:25.744Z,64.38
2023-02-11T11:03:33.169Z,68.53
2023-02-11T11:08:42.888Z,72.93
2023-02-11T11:14:00.785Z,70.53
2023-02-11T11:19:22.387Z,68.72
2023-02-11T11:24:29.529Z,71.63
2023-02-11T11:34:42.273Z,67.93
2023-02-11T11:39:53.624Z,68.60
2023-02-11T11:45:00.348Z,64.60
2023-02-11T11:50:26.117Z,72.15
2023-02-11T11:55:34.354Z,59.20
2023-02-11T12:00:48.188Z,66.65
2023-02-11T12:06:04.576Z,59.63
2023-02-11T12:11:18.519Z,62.40
2023-02-11T12:16:34.820Z,61.70
2023-02-11T12:21:46.721Z,65.63
2023-02-11T12:26:57.586Z,52.35
2023-02-11T12:32:18.934Z,69.68
2023-02-11T12:37:37.005Z,61.17
2023-02-11T12:43:08.811Z,58.85
2023-02-11T12:48:35.719Z,67.93
2023-02-11T12:59:19.409Z,62.75
2023-02-11T13:04:30.517Z,61.90
2023-02-11T13:09:39.771Z,63.88
2023-02-11T13:14:42.949Z,68.80
2023-02-11T13:19:52.299Z,71.22
2023-02-11T13:25:03.794Z,69.05
2023-02-11T13:30:24.424Z,66.90
2023-02-11T13:35:31.984Z,65.00
2023-02-11T13:40:37.654Z,71.22
2023-02-11T13:45:44.645Z,67.15
2023-02-11T13:50:51.992Z,72.40
2023-02-11T13:56:08.429Z,70.38
2023-02-11T14:01:11.338Z,74.13
2023-02-11T14:06:35.995Z,65.53
2023-02-11T14:11:55.423Z,71.55
2023-02-11T14:17:21.604Z,65.82
2023-02-11T14:22:29.637Z,67.87
2023-02-11T14:27:43.933Z,67.18
2023-02-11T14:33:02.759Z,73.07
2023-02-11T14:38:19.601Z,60.38
2023-02-11T14:43:28.480Z,73.87
2023-02-11T14:48:35.370Z,62.03
2023-02-11T14:53:44.936Z,58.45
2023-02-11T14:58:49.139Z,74.35
2023-02-11T15:03:51.985Z,73.45
2023-02-11T15:09:00.956Z,81.15
2023-02-11T15:14:10.181Z,71.47
2023-02-11T15:19:22.248Z,69.30
2023-02-11T15:24:29.653Z,58.50
2023-02-11T15:29:39.121Z,55.08
2023-02-11T15:34:42.069Z,64.70
2023-02-11T15:39:46.640Z,52.22
2023-02-11T15:44:56.507Z,58.85
2023-02-11T15:50:00.306Z,57.58
2023-02-11T15:55:04.741Z,62.40
2023-02-11T16:00:08.968Z,58.88
2023-02-11T16:05:30.261Z,62.67
2023-02-11T16:10:36.356Z,60.50
2023-02-11T16:15:52.433Z,60.15
2023-02-11T16:20:55.569Z,63.00
2023-02-11T16:26:05.461Z,66.03
2023-02-11T16:31:09.696Z,62.45
2023-02-11T16:36:14.887Z,69.00
2023-02-11T16:41:19.089Z,65.43
2023-02-11T16:46:21.816Z,73.18
2023-02-11T16:51:24.747Z,82.70
2023-02-11T16:56:29.004Z,69.38
2023-02-11T17:01:32.829Z,69.97
2023-02-11T17:06:36.116Z,70.15
2023-02-11T17:11:40.254Z,67.07
2023-02-11T17:16:43.454Z,59.67
2023-02-11T17:21:47.320Z,60.47
2023-02-11T17:26:51.950Z,63.63
2023-02-11T17:31:54.994Z,61.00
2023-02-11T17:36:59.624Z,68.63
2023-02-11T17:42:05.485Z,74.68
2023-02-11T17:47:08.241Z,70.68
2023-02-11T17:52:11.063Z,80.50
2023-02-11T17:57:15.204Z,72.47
2023-02-11T18:02:18.039Z,77.47
2023-02-11T18:07:20.901Z,78.38
2023-02-11T18:12:26.249Z,81.15
2023-02-11T18:17:29.227Z,91.00
2023-02-11T18:22:36.643Z,81.03
2023-02-11T18:27:40.808Z,95.38
2023-02-11T18:32:43.754Z,91.40
2023-02-11T18:37:46.607Z,91.63
2023-02-11T18:42:50.747Z,76.40
2023-02-11T18:47:53.440Z,94.57
2023-02-11T18:52:56.246Z,94.18
2023-02-11T18:58:00.426Z,94.95
2023-02-11T19:03:03.473Z,94.10
2023-02-11T19:08:06.333Z,96.35
2023-02-11T19:13:10.941Z,88.18
2023-02-11T19:18:15.931Z,105.57
2023-02-11T19:23:18.708Z,106.75
2023-02-11T19:28:23.087Z,86.47
2023-02-11T19:33:25.919Z,97.50
2023-02-11T19:38:28.819Z,106.15
2023-02-11T19:43:32.889Z,102.07
2023-02-11T19:48:35.710Z,95.35
2023-02-11T19:53:38.826Z,106.50
2023-02-11T19:58:43.774Z,107.70
2023-02-11T20:03:50.297Z,91.72
2023-02-11T20:08:56.504Z,90.23
2023-02-11T20:14:02.502Z,90.03
2023-02-11T20:19:05.195Z,88.20
2023-02-11T20:24:08.236Z,84.35
2023-02-11T20:29:12.602Z,106.85
2023-02-11T20:34:17.482Z,101.15
2023-02-11T20:39:21.815Z,111.28
2023-02-11T20:44:26.119Z,99.63
2023-02-11T20:49:29.050Z,80.72
2023-02-11T20:54:31.842Z,82.15
2023-02-11T20:59:36.028Z,93.75
2023-02-11T21:04:39.131Z,82.90
2023-02-11T21:09:42.141Z,107.50
2023-02-11T21:14:46.851Z,93.63
2023-02-11T21:19:49.536Z,83.45
2023-02-11T21:24:52.369Z,95.63
2023-02-11T21:29:56.481Z,125.38
2023-02-11T21:35:02.184Z,90.85
2023-02-11T21:40:05.598Z,98.32
2023-02-11T21:45:10.702Z,98.13
2023-02-11T21:50:13.870Z,94.20
2023-02-11T21:55:16.626Z,101.13
2023-02-11T22:00:21.610Z,106.40
2023-02-11T22:05:24.776Z,98.00
2023-02-11T22:10:27.530Z,110.28
2023-02-11T22:15:31.767Z,89.72
2023-02-11T22:20:34.501Z,95.65
2023-02-11T22:25:37.770Z,113.90
2023-02-11T22:30:41.977Z,89.82
2023-02-11T22:35:44.718Z,94.15
2023-02-11T22:40:47.455Z,99.35
2023-02-11T22:45:52.252Z,94.93
2023-02-11T22:50:55.179Z,90.90
2023-02-11T22:55:58.241Z,94.57
2023-02-11T23:01:03.021Z,89.95
2023-02-11T23:06:06.477Z,89.78
2023-02-11T23:11:12.280Z,99.25
2023-02-11T23:16:19.196Z,96.53
2023-02-11T23:21:24.093Z,107.20
2023-02-11T23:26:27.513Z,93.60
2023-02-11T23:31:34.478Z,93.40
2023-02-11T23:41:40.007Z,88.10
2023-02-11T23:46:44.125Z,96.72
2023-02-11T23:51:46.915Z,95.68
2023-02-11T23:56:49.712Z,109.72
